Weather at Manantali Bengassi Airport

Public forecast

Using degrees Celsius for public forecast. Weather courtesy of forecast.io.

Closest aviation weather report (METAR) to Manantali Bengassi Airport

Report is more than 6 hours old.

Closest report is K√©dougou Airport, 108.5 nm (200.9 km) WSW.

2022/11/14 15:00 (retrieved 2 years ago)

GOTK 141500Z 26006KT CAVOK 34/19 Q1010

Closest aviation forecast (TAF) to Manantali Bengassi Airport

Forecast is more than 12 hours old.

Closest forecast is Modibo Keita International Airport, 155.7 nm (288.3 km) ESE.

2023/02/22 18:51 (retrieved 1 year ago)

TAF TAF GABS 221700Z 2218/2324 05008KT 8000 NSC